Airfield :
LOGIN :

Register | Disclaimer

   EN    FR    IT 

 










Legend :    VFR   Marginal VFR   IFR   Intensive IFR   Very Intensive IFR
Visi :
Ceiling :
>= 8 km
>= 3000ft
5 to 8 km
1000 to 3000 ft
1500m to 5 km
500 to 1000 ft
800 to 1500m
200 to 500 ft
< 800m
< 200 ft
Symbols :   Thunderstorms  Fog  Heavy snow  Heavy precipitations  Wind > 20 kt
SIGMETs :     Misc.  Thunderstorms  Icing  Turbulence  Mountain Waves  Volcanic Ashes






- Airport Elevation : 17 ft
- IATA code : GRS


LIRS - Grosseto

CURRENT METAR :
  • 231655Z 16002KT 9999 FEW030 20/16 Q1020

EXPIRED METARs :
  • 231555Z 12004KT 9999 FEW030 SCT060 21/16 Q1020
  • 231455Z 10003KT 9999 FEW025 SCT050 21/15 Q1019 RMK BKN VIS MIN 9999 WIND THR03 11003KT WIND THR21 12003KT BLU

TAF TAF LIRS
Valid from the 23 at 15:00 until the 24 at 00:00 UTC


231400Z 2315/2324 04008KT 9999 FEW025 BKN050



MET'MAP, your aeronautical weather chart ! - Copyright ORBIFLY December 2007 - Disclaimer

ORBIFLY MET'MAP TEAM :

Programming & Development : Alexandra Zaïnal
Concept & original design : Baudouin d'Aumeries
Assistance for programming : Marc-Olivier Méhu
Technical & hardware support : Manuel Goepfert

Contact : metmap@orbifly.com




SOURCES & CREDITS :

   NOAA